Terminal Aerodrome Forecast
Issued by NWS

Home | Current Version | Previous Version | Text Only | Print | Product List | Glossary On
Versions: 1 2 3 4 5 6 7 8 9 10 11 12 13 14 15 16 17 18 19 20 21
000
FTUS41 KPHI 301132
TAFMIV
TAF
KMIV 301132Z 3012/3112 VRB03KT P6SM BKN004
     FM301400 18004KT 6SM BR BKN015
     FM301600 20006KT P6SM SCT025
     FM301800 18010G17KT P6SM FEW050
     FM302200 16006KT P6SM SCT060 BKN120=

USA.gov is the U.S. government's official web portal to all federal, state and local government web resources and services.